»·PEaware :: N505EC KSBA-KBUR

N505EC :: KSBA-KBUR

FLIGHT INFORMATION

Flight Status: Arrived
Operator: Privately registered:
United States
More flights under this callsign
Pilot: Jason S. (22976)
Aircraft: CESSNA T210 TURBO CENTURION
(T210)
More flights by this aircraft type
Origin: KSBA Santa Barbara Mun
United States
Destination: KBUR Bob Hope-Burbank
United States
More flights between these airports :: More routes between these airports
Route: VFR
File this flight plan on PilotEdge
Remarks: CAT 8
Altitude:
(Current/Filed)
7,500ft
Speed:
(Current/Filed)
150kts
Departed: 29-Jan-19 04:49 PM
Arrived: 29-Jan-19 05:23 PM
Distance/Time
Traveled:
75nm/0:34
Distance/Time
To Go:
Arrived

Flight Plot

Page will automatically refresh every two minutes.


Map Options




Map Legend


Flown Route
Filed Route
Departure Airport
Arrival Airport
Navaid (VOR, NDB)
Fix

Horizontal Profiles

Position Reports

Time Latitude Longitude Heading Altitude Ground
Speed
29-Jan-19 16:22 34.431676 -119.838228 165 14ft 0kts
29-Jan-19 16:23 34.431676 -119.838228 165 14ft 0kts
29-Jan-19 16:24 34.431676 -119.838228 165 14ft 0kts
29-Jan-19 16:25 34.431676 -119.838228 165 14ft 0kts
29-Jan-19 16:26 34.431676 -119.838228 165 14ft 0kts
29-Jan-19 16:27 34.431676 -119.838228 165 14ft 0kts
29-Jan-19 16:28 34.431676 -119.838228 165 14ft 0kts
29-Jan-19 16:29 34.431676 -119.838228 165 14ft 0kts
29-Jan-19 16:30 34.431676 -119.838228 165 14ft 0kts
29-Jan-19 16:31 34.431676 -119.838228 165 14ft 0kts
29-Jan-19 16:32 34.431676 -119.838228 165 14ft 0kts
29-Jan-19 16:33 34.431676 -119.838228 165 14ft 0kts
29-Jan-19 16:34 34.431676 -119.838228 165 14ft 0kts
29-Jan-19 16:35 34.431676 -119.838228 165 14ft 0kts
29-Jan-19 16:36 34.431676 -119.838228 165 14ft 0kts
29-Jan-19 16:37 34.431676 -119.838228 165 14ft 0kts
29-Jan-19 16:38 34.431676 -119.838228 165 14ft 0kts
29-Jan-19 16:39 34.431676 -119.838228 165 14ft 0kts
29-Jan-19 16:40 34.431676 -119.838228 165 14ft 0kts
29-Jan-19 16:41 34.431676 -119.838228 165 14ft 0kts
29-Jan-19 16:42 34.431676 -119.838228 165 14ft 0kts
29-Jan-19 16:43 34.431676 -119.838228 165 14ft 0kts
29-Jan-19 16:44 34.431657 -119.838227 177 14ft 1kts
29-Jan-19 16:45 34.430862 -119.839305 248 13ft 6kts
29-Jan-19 16:46 34.430697 -119.839755 246 13ft 0kts
29-Jan-19 16:47 34.430508 -119.840208 211 13ft 5kts
29-Jan-19 16:48 34.415564 -119.834351 157 444ft 83kts
29-Jan-19 16:49 34.383873 -119.820406 159 844ft 133kts
29-Jan-19 16:50 34.349652 -119.805750 159 1235ft 127kts
29-Jan-19 17:04 34.333216 -119.192777 101 7486ft 162kts
29-Jan-19 17:05 34.324998 -119.139255 102 7485ft 161kts
29-Jan-19 17:06 34.316713 -119.086070 102 7483ft 161kts
29-Jan-19 17:07 34.308332 -119.032497 102 7481ft 162kts
29-Jan-19 17:08 34.299903 -118.978976 101 7490ft 161kts
29-Jan-19 17:09 34.291565 -118.925910 101 7491ft 159kts
29-Jan-19 17:10 34.283241 -118.873320 101 7491ft 158kts
29-Jan-19 17:11 34.274969 -118.821062 101 7491ft 157kts
29-Jan-19 17:12 34.266748 -118.769167 102 7489ft 157kts
29-Jan-19 17:14 34.259123 -118.721558 104 6777ft 126kts
29-Jan-19 17:15 34.252830 -118.682175 105 5843ft 114kts
29-Jan-19 17:16 34.246838 -118.644800 106 4904ft 106kts
29-Jan-19 17:17 34.239829 -118.601097 104 4395ft 146kts
29-Jan-19 17:18 34.232196 -118.553502 104 3788ft 139kts
29-Jan-19 17:19 34.224917 -118.508265 104 3179ft 135kts
29-Jan-19 17:20 34.217883 -118.464411 104 2871ft 126kts
29-Jan-19 17:21 34.210903 -118.423394 110 2637ft 126kts
29-Jan-19 17:22 34.198450 -118.387797 100 1346ft 104kts
29-Jan-19 17:23 34.197691 -118.361528 93 717ft 40kts
29-Jan-19 17:24 34.197024 -118.360299 171 714ft 0kts
29-Jan-19 17:25 34.196840 -118.360062 118 713ft 5kts
29-Jan-19 17:26 34.196338 -118.358187 256 708ft 2kts
29-Jan-19 17:27 34.196331 -118.358240 260 708ft 0kts
29-Jan-19 17:28 34.196331 -118.358240 260 708ft 0kts
29-Jan-19 17:29 34.196331 -118.358240 260 708ft 0kts
29-Jan-19 17:30 34.196331 -118.358240 260 708ft 0kts
29-Jan-19 17:31 34.196331 -118.358240 260 708ft 0kts
29-Jan-19 17:32 34.196331 -118.358240 260 708ft 0kts
29-Jan-19 17:32 34.196331 -118.358240 260 708ft 0kts
29-Jan-19 17:33 34.196331 -118.358240 260 708ft 0kts
29-Jan-19 17:35 34.196331 -118.358240 260 708ft 0kts
29-Jan-19 17:36 34.196331 -118.358240 260 708ft 0kts
29-Jan-19 17:36 34.196331 -118.358240 260 708ft 0kts

Navigation Log

Ident Type
Flight plan parsing failed, navigation log unavailable